メインページ
METAR-TAF:

METAR-TAF

空港 :

上海浦東国際空港

上海浦東, 中華人民共和国

緯度: 31-07N, 経度: 121-46E, 海抜: 4m

現時点の気象観測

当レポートは13分前の03:00(UTC)に作成
東/南東の風 10kt
気温 20°C
湿度 94%
気圧 1014 hPa
視程: 6000m
高度600ftの千切れ雲あり
小雨

METAR: ZSPD 210300Z 11005MPS 6000 -RA BKN006 20/19 Q1014 NOSIG

時間: 11:13 (03:13 UTC)

予報

当レポートは5時間57分前の21:16(UTC)に作成
予報は21日の 00時(UTC)から 21日の 24時(UTC)まで有効
東/南東の風 12kt
視程: 3500m
高度300ftの千切れ雲あり
21日の 00時(UTC)から 21日の 01時(UTC)まで徐々に
高度600ftの千切れ雲あり
21日の 03時(UTC)から 21日の 04時(UTC)まで徐々に
高度1100ftの千切れ雲あり

TAF: ZSPD 202116Z 2100/2124 11006MPS 3500 BR BKN003 TX23/2106Z TN19/2121Z BECMG 2100/2101 BKN006 BECMG 2103/2104 BKN011

4,000以上の空港の気象観測と天気予報(METAR報とTAF報)

利用可能な観測所は地図上に黄色い丸と赤い丸で示す。

丸の上にカーソルを重ねると観測所名を参照できる。

次にクリックすると気象観測と天気予報を参照できる。

マップの切り替え:黒色「×」印の緑ボタンをクリックして拡大、「-」印の緑ボタンをクリックして縮小、緑色の三角印をクリックして隣りの地図に切り替え


METAR-TAF: